Time;durP1;ratioP1;P1;durP2;ratioP2;P2;SDS_P1;SDS_P2;PMS_P1;PMS_P2;Temp;Humidity;BMP_temperature;BMP_pressure;BME280_temperature;BME280_humidity;BME280_pressure;Samples;Min_cycle;Max_cycle;Signal;HPM_P1;HPM_P2
2021/04/07 00:01:51;;;;;;;3.22;1.75;;;4.50;73.60;;;;;;3585921;39;20032;-62
2021/04/07 00:04:17;;;;;;;2.63;1.33;;;4.50;73.50;;;;;;3584782;39;20114;-62
2021/04/07 00:06:42;;;;;;;2.17;1.30;;;4.50;73.70;;;;;;3585418;40;20048;-62
2021/04/07 00:09:09;;;;;;;4.22;1.67;;;4.50;73.40;;;;;;3579004;40;20025;-61
2021/04/07 00:11:35;;;;;;;4.50;1.67;;;4.60;72.80;;;;;;3579436;40;20032;-62
2021/04/07 00:14:04;;;;;;;3.40;1.42;;;4.60;73.00;;;;;;3583114;40;20032;-62
2021/04/07 00:16:30;;;;;;;3.30;1.65;;;4.60;73.20;;;;;;3586450;39;20802;-62
2021/04/07 00:18:55;;;;;;;3.75;1.50;;;4.70;73.10;;;;;;3586458;39;20036;-63
2021/04/07 00:21:21;;;;;;;7.63;1.73;;;4.80;72.80;;;;;;3582651;39;20442;-62
2021/04/07 00:23:48;;;;;;;7.30;1.75;;;4.80;72.30;;;;;;3579219;40;20712;-62
2021/04/07 00:26:13;;;;;;;4.07;2.30;;;4.70;71.80;;;;;;3578340;40;20024;-63
2021/04/07 00:28:39;;;;;;;5.88;1.60;;;4.80;72.30;;;;;;3581204;40;20019;-62
2021/04/07 00:31:05;;;;;;;3.80;1.70;;;4.80;72.20;;;;;;3583811;39;20130;-62
2021/04/07 00:33:30;;;;;;;2.65;1.60;;;4.70;71.40;;;;;;3587055;39;20013;-62
2021/04/07 00:35:56;;;;;;;6.55;2.28;;;4.70;72.30;;;;;;3585151;39;20049;-62
2021/04/07 00:38:22;;;;;;;5.90;1.88;;;4.70;72.20;;;;;;3582369;40;20024;-62
2021/04/07 00:40:48;;;;;;;4.95;1.70;;;4.80;72.20;;;;;;3580095;40;20032;-62
2021/04/07 00:43:14;;;;;;;5.70;1.88;;;4.80;72.10;;;;;;3585824;40;20032;-62
2021/04/07 00:45:40;;;;;;;7.32;2.20;;;4.70;71.60;;;;;;3583192;39;20042;-62
2021/04/07 00:48:06;;;;;;;4.60;1.70;;;4.70;72.10;;;;;;3581125;39;20044;-61
2021/04/07 00:50:33;;;;;;;5.30;1.40;;;4.70;72.10;;;;;;3577004;40;20039;-62
2021/04/07 00:53:00;;;;;;;3.15;1.30;;;4.70;72.30;;;;;;3579906;40;20696;-62
2021/04/07 00:55:31;;;;;;;2.33;2.00;;;4.70;72.20;;;;;;3582387;40;20033;-62
2021/04/07 00:57:57;;;;;;;2.88;1.35;;;4.70;72.20;;;;;;3586661;39;20039;-62
2021/04/07 01:00:23;;;;;;;4.13;1.50;;;4.70;71.70;;;;;;3585864;39;20118;-62
2021/04/07 01:02:54;;;;;;;4.07;1.88;;;4.70;71.40;;;;;;3582072;39;20039;-62
2021/04/07 01:05:20;;;;;;;6.55;1.80;;;4.60;72.00;;;;;;3577193;39;20136;-62
2021/04/07 01:07:46;;;;;;;3.50;1.25;;;4.60;71.80;;;;;;3577906;40;20054;-62
2021/04/07 01:10:12;;;;;;;5.50;1.85;;;4.50;72.40;;;;;;3580926;39;20080;-62
2021/04/07 01:12:39;;;;;;;6.40;1.77;;;4.50;72.70;;;;;;3584297;39;20754;-62
2021/04/07 01:15:06;;;;;;;4.50;1.70;;;4.50;72.30;;;;;;3586304;40;20046;-62
2021/04/07 01:17:32;;;;;;;2.53;1.30;;;4.50;72.30;;;;;;3584756;39;20056;-63
2021/04/07 01:19:59;;;;;;;3.40;1.30;;;4.50;72.40;;;;;;3581004;39;20033;-62
2021/04/07 01:22:25;;;;;;;5.07;1.85;;;4.50;72.20;;;;;;3578179;39;20800;-63
2021/04/07 01:24:51;;;;;;;4.20;1.40;;;4.50;72.40;;;;;;3578775;40;20033;-62
2021/04/07 01:27:17;;;;;;;5.38;1.73;;;4.50;72.20;;;;;;3581453;40;20024;-62
2021/04/07 01:29:44;;;;;;;3.53;1.55;;;4.50;72.60;;;;;;3584416;40;20091;-62
2021/04/07 01:32:10;;;;;;;2.88;1.45;;;4.50;72.70;;;;;;3585600;39;20032;-62
2021/04/07 01:34:43;;;;;;;3.53;1.60;;;4.60;72.70;;;;;;3583542;39;20040;-62
2021/04/07 01:37:11;;;;;;;2.45;1.05;;;4.60;72.60;;;;;;3579738;40;20129;-62
2021/04/07 01:39:36;;;;;;;5.18;1.60;;;4.60;72.10;;;;;;3577540;40;20680;-61
2021/04/07 01:42:03;;;;;;;5.35;1.60;;;4.60;72.30;;;;;;3579458;40;20132;-63
2021/04/07 01:44:29;;;;;;;7.18;1.45;;;4.60;72.40;;;;;;3582408;39;20043;-62
2021/04/07 01:46:56;;;;;;;4.88;1.55;;;4.60;72.40;;;;;;3585312;39;20048;-61
2021/04/07 01:49:24;;;;;;;3.00;1.67;;;4.60;72.00;;;;;;3584919;39;20040;-62
2021/04/07 01:51:50;;;;;;;4.63;1.48;;;4.60;72.20;;;;;;3582439;39;20670;-62
2021/04/07 01:54:16;;;;;;;5.35;2.33;;;4.60;72.50;;;;;;3579572;39;20166;-62
2021/04/07 01:56:58;;;;;;;2.83;1.60;;;4.60;72.40;;;;;;3577414;40;20145;-62
2021/04/07 01:59:31;;;;;;;4.28;1.80;;;4.60;72.40;;;;;;3582539;40;20031;-62
2021/04/07 02:01:58;;;;;;;3.22;1.48;;;4.50;72.00;;;;;;3583121;40;20024;-62
2021/04/07 02:04:25;;;;;;;3.13;1.27;;;4.50;72.60;;;;;;3576922;40;20095;-62
2021/04/07 02:06:51;;;;;;;2.75;1.17;;;4.40;72.90;;;;;;3578053;40;20124;-62
2021/04/07 02:09:18;;;;;;;7.32;1.90;;;4.50;73.00;;;;;;3582135;40;20669;-62
2021/04/07 02:11:48;;;;;;;3.42;1.65;;;4.50;73.00;;;;;;3579836;39;20897;-62
2021/04/07 02:14:19;;;;;;;4.85;1.60;;;4.60;72.80;;;;;;3576971;40;20132;-63
2021/04/07 02:16:59;;;;;;;3.10;1.20;;;4.60;72.50;;;;;;3581090;39;20472;-62
2021/04/07 02:19:27;;;;;;;2.17;1.60;;;4.60;72.60;;;;;;3581565;40;20032;-62
2021/04/07 02:22:05;;;;;;;3.45;1.77;;;4.60;72.50;;;;;;3577507;40;20400;-61
2021/04/07 02:24:32;;;;;;;2.15;1.55;;;4.60;72.10;;;;;;3582477;40;20032;-62
2021/04/07 02:27:01;;;;;;;4.93;1.58;;;4.60;72.60;;;;;;3579604;40;20035;-62
2021/04/07 02:29:27;;;;;;;1.83;1.10;;;4.50;72.00;;;;;;3585656;40;20042;-62
2021/04/07 02:31:52;;;;;;;2.90;1.58;;;4.50;73.00;;;;;;3583021;39;20024;-62
2021/04/07 02:34:18;;;;;;;5.28;1.38;;;4.50;73.00;;;;;;3580175;39;20041;-62
2021/04/07 02:36:44;;;;;;;2.58;1.02;;;4.50;72.30;;;;;;3577401;39;20036;-62
2021/04/07 02:39:09;;;;;;;3.90;1.60;;;4.50;72.60;;;;;;3578699;40;20029;-62
2021/04/07 02:41:35;;;;;;;3.25;1.30;;;4.50;72.80;;;;;;3581028;40;20032;-62
2021/04/07 02:44:01;;;;;;;3.40;1.40;;;4.50;72.80;;;;;;3584423;40;20435;-62
2021/04/07 02:46:27;;;;;;;4.18;1.40;;;4.50;73.30;;;;;;3585143;39;20024;-63
2021/04/07 02:48:52;;;;;;;2.67;1.40;;;4.50;72.90;;;;;;3582010;39;20036;-61
2021/04/07 02:51:18;;;;;;;7.80;1.83;;;4.50;73.60;;;;;;3578928;39;20414;-62
2021/04/07 02:53:43;;;;;;;2.72;1.33;;;4.50;73.70;;;;;;3576024;40;20496;-62
2021/04/07 02:56:09;;;;;;;1.83;0.98;;;4.50;73.20;;;;;;3578893;40;20031;-62
2021/04/07 02:58:35;;;;;;;2.22;1.45;;;4.50;72.90;;;;;;3582571;40;20036;-62
2021/04/07 03:01:01;;;;;;;8.07;1.88;;;4.50;73.20;;;;;;3585776;39;20032;-62
2021/04/07 03:03:27;;;;;;;5.72;1.40;;;4.50;73.10;;;;;;3584971;39;20112;-61
2021/04/07 03:05:52;;;;;;;4.70;1.75;;;4.50;73.20;;;;;;3578985;40;20032;-61
2021/04/07 03:08:18;;;;;;;5.32;1.90;;;4.50;73.50;;;;;;3583055;40;20180;-61
2021/04/07 03:10:44;;;;;;;4.65;1.90;;;4.50;73.50;;;;;;3584481;39;20503;-61
2021/04/07 03:13:09;;;;;;;3.25;1.83;;;4.50;73.40;;;;;;3582009;39;20036;-62
2021/04/07 03:15:35;;;;;;;3.53;1.77;;;4.50;73.70;;;;;;3578719;40;20066;-62
2021/04/07 03:18:01;;;;;;;6.13;1.77;;;4.40;73.80;;;;;;3576240;40;20695;-62
2021/04/07 03:20:27;;;;;;;3.45;1.63;;;4.40;73.80;;;;;;3577816;40;20130;-62
2021/04/07 03:22:52;;;;;;;5.47;1.90;;;4.50;73.60;;;;;;3580651;39;20032;-62
2021/04/07 03:25:18;;;;;;;4.78;1.75;;;4.50;73.60;;;;;;3584156;39;20052;-61
2021/04/07 03:27:44;;;;;;;2.70;1.40;;;4.50;72.80;;;;;;3585417;39;20076;-62
2021/04/07 03:30:11;;;;;;;4.88;2.15;;;4.50;72.90;;;;;;3583876;40;20028;-62
2021/04/07 03:32:36;;;;;;;4.32;2.50;;;4.50;72.50;;;;;;3579211;39;20525;-62
2021/04/07 03:35:03;;;;;;;6.70;2.38;;;4.40;73.00;;;;;;3590768;39;20048;-62
2021/04/07 03:37:28;;;;;;;4.43;1.95;;;4.40;73.70;;;;;;3585136;39;20039;-64
2021/04/07 03:39:54;;;;;;;5.95;2.50;;;4.30;73.80;;;;;;3587620;39;20381;-62
2021/04/07 03:42:20;;;;;;;8.80;2.67;;;4.30;74.20;;;;;;3586786;40;20052;-62
2021/04/07 03:44:45;;;;;;;4.47;1.92;;;4.40;74.10;;;;;;3586089;39;20020;-63
2021/04/07 03:47:11;;;;;;;9.20;2.58;;;4.50;73.80;;;;;;3584308;39;20450;-62
2021/04/07 03:49:37;;;;;;;4.28;2.10;;;4.40;73.60;;;;;;3586324;39;20024;-62
2021/04/07 03:52:03;;;;;;;4.22;1.90;;;4.40;73.40;;;;;;3591250;39;20019;-62
2021/04/07 03:54:29;;;;;;;8.52;2.17;;;4.40;73.60;;;;;;3581913;40;20538;-63
2021/04/07 03:56:55;;;;;;;8.85;1.63;;;4.40;73.40;;;;;;3583984;40;20036;-62
2021/04/07 03:59:21;;;;;;;3.83;1.77;;;4.40;73.70;;;;;;3589294;39;20039;-62
2021/04/07 04:01:47;;;;;;;5.45;1.77;;;4.40;73.90;;;;;;3587719;39;20047;-62
2021/04/07 04:04:13;;;;;;;3.33;1.55;;;4.30;73.90;;;;;;3584373;39;20122;-62
2021/04/07 04:06:43;;;;;;;7.35;2.45;;;4.30;73.90;;;;;;3586144;39;20102;-62
2021/04/07 04:09:09;;;;;;;6.45;1.98;;;4.30;73.90;;;;;;3579407;40;20025;-62
2021/04/07 04:11:35;;;;;;;5.63;2.15;;;4.20;74.00;;;;;;3584366;39;20666;-62
2021/04/07 04:14:00;;;;;;;7.25;1.92;;;4.20;74.10;;;;;;3583662;39;20035;-62
2021/04/07 04:16:28;;;;;;;9.15;3.70;;;4.20;74.00;;;;;;3582526;39;20365;-62
2021/04/07 04:18:54;;;;;;;7.13;2.53;;;4.20;73.60;;;;;;3583453;39;20033;-62
2021/04/07 04:21:20;;;;;;;8.30;2.13;;;4.20;74.10;;;;;;3585725;39;20335;-62
2021/04/07 04:23:45;;;;;;;5.40;1.70;;;4.20;74.20;;;;;;3589716;39;20340;-62
2021/04/07 04:26:11;;;;;;;5.85;1.90;;;4.10;73.90;;;;;;3585379;39;20035;-62
2021/04/07 04:28:37;;;;;;;6.95;1.90;;;4.10;74.20;;;;;;3585060;40;20037;-63
2021/04/07 04:31:02;;;;;;;7.50;2.10;;;4.20;74.00;;;;;;3586495;39;20028;-62
2021/04/07 04:33:28;;;;;;;8.52;2.03;;;4.10;73.90;;;;;;3584598;39;20095;-63
2021/04/07 04:35:58;;;;;;;6.57;2.03;;;4.10;73.40;;;;;;3585408;39;20028;-62
2021/04/07 04:38:27;;;;;;;6.05;2.33;;;4.10;73.60;;;;;;3580639;39;20047;-61
2021/04/07 04:40:53;;;;;;;8.88;2.30;;;4.00;73.90;;;;;;3581531;39;20746;-62
2021/04/07 04:43:19;;;;;;;5.55;2.40;;;3.90;73.80;;;;;;3587527;39;20016;-62
2021/04/07 04:45:45;;;;;;;6.22;2.15;;;4.00;74.20;;;;;;3583792;39;20030;-62
2021/04/07 04:48:11;;;;;;;9.65;2.13;;;4.00;72.90;;;;;;3585039;39;20707;-62
2021/04/07 04:50:36;;;;;;;7.88;1.88;;;4.00;72.70;;;;;;3582992;39;20066;-62
2021/04/07 04:53:02;;;;;;;6.90;2.10;;;4.00;72.40;;;;;;3584423;39;20157;-62
2021/04/07 04:55:28;;;;;;;5.85;2.00;;;4.00;72.70;;;;;;3587247;39;20161;-62
2021/04/07 04:57:54;;;;;;;5.57;2.05;;;3.90;72.90;;;;;;3584111;39;20078;-62
2021/04/07 05:00:20;;;;;;;7.45;2.45;;;4.00;73.10;;;;;;3587370;39;20032;-62
2021/04/07 05:02:45;;;;;;;7.35;2.05;;;4.10;72.50;;;;;;3588948;39;20028;-62
2021/04/07 05:05:12;;;;;;;6.38;2.20;;;4.10;72.80;;;;;;3586840;39;20128;-62
2021/04/07 05:07:38;;;;;;;6.90;2.13;;;4.20;73.10;;;;;;3584824;39;20080;-62
2021/04/07 05:10:04;;;;;;;9.80;2.42;;;4.20;72.80;;;;;;3583732;39;20718;-62
2021/04/07 05:12:30;;;;;;;8.15;2.55;;;4.40;72.80;;;;;;3585701;39;20032;-62
2021/04/07 05:14:57;;;;;;;5.05;1.73;;;4.50;72.70;;;;;;3585179;40;20040;-62
2021/04/07 05:17:22;;;;;;;12.18;3.65;;;4.50;71.90;;;;;;3584556;39;20745;-62
2021/04/07 05:19:48;;;;;;;4.28;2.20;;;4.50;72.00;;;;;;3585539;39;20032;-63
2021/04/07 05:22:14;;;;;;;7.85;2.67;;;4.50;71.70;;;;;;3585669;39;20046;-62
2021/04/07 05:24:40;;;;;;;5.13;2.58;;;4.60;71.40;;;;;;3586363;39;20038;-62
2021/04/07 05:27:06;;;;;;;6.05;2.80;;;4.50;71.50;;;;;;3586643;39;20808;-62
2021/04/07 05:29:31;;;;;;;8.15;2.20;;;4.50;71.40;;;;;;3577558;40;20381;-63
2021/04/07 05:31:58;;;;;;;7.63;1.92;;;4.50;71.50;;;;;;3582343;39;20035;-62
2021/04/07 05:34:23;;;;;;;8.15;2.47;;;4.50;72.00;;;;;;3584217;39;20803;-63
2021/04/07 05:36:49;;;;;;;9.57;2.45;;;4.50;71.70;;;;;;3586599;39;20035;-63
2021/04/07 05:39:15;;;;;;;9.57;2.42;;;4.50;71.00;;;;;;3580782;39;20028;-63
2021/04/07 05:41:42;;;;;;;6.88;2.08;;;4.60;71.10;;;;;;3588699;39;20027;-63
2021/04/07 05:44:08;;;;;;;8.00;2.17;;;4.60;71.30;;;;;;3582760;39;20028;-63
2021/04/07 05:46:34;;;;;;;7.82;1.83;;;4.60;71.30;;;;;;3585748;39;20040;-64
2021/04/07 05:49:00;;;;;;;9.60;2.10;;;4.60;70.90;;;;;;3584127;39;20029;-63
2021/04/07 05:51:26;;;;;;;7.78;2.65;;;4.60;70.20;;;;;;3586878;39;20032;-63
2021/04/07 05:53:52;;;;;;;9.48;2.22;;;4.60;70.30;;;;;;3588361;39;20132;-62
2021/04/07 05:56:18;;;;;;;6.78;2.15;;;4.70;70.90;;;;;;3587264;39;20036;-62
2021/04/07 05:58:43;;;;;;;9.63;2.30;;;4.80;71.40;;;;;;3587114;39;20072;-62
2021/04/07 06:01:09;;;;;;;8.52;2.17;;;4.90;70.30;;;;;;3587126;39;20559;-62
2021/04/07 06:03:35;;;;;;;6.97;2.80;;;4.90;69.80;;;;;;3588420;39;20033;-62
2021/04/07 06:06:00;;;;;;;8.65;2.60;;;5.00;69.70;;;;;;3584629;39;20040;-63
2021/04/07 06:08:26;;;;;;;7.32;2.10;;;5.00;69.40;;;;;;3586332;39;20125;-63
2021/04/07 06:10:52;;;;;;;7.20;2.30;;;5.10;69.30;;;;;;3585909;39;20064;-62
2021/04/07 06:13:18;;;;;;;8.05;2.45;;;5.10;69.20;;;;;;3585497;39;20354;-63
2021/04/07 06:15:45;;;;;;;6.93;2.00;;;5.20;69.50;;;;;;3588446;39;20188;-64
2021/04/07 06:18:13;;;;;;;5.63;1.95;;;5.20;69.00;;;;;;3585720;39;20888;-62
2021/04/07 06:20:42;;;;;;;10.00;2.42;;;5.30;68.10;;;;;;3585538;39;20086;-62
2021/04/07 06:23:09;;;;;;;6.20;1.75;;;5.30;68.00;;;;;;3584697;39;20044;-62
2021/04/07 06:25:36;;;;;;;5.32;1.70;;;5.30;67.70;;;;;;3584176;39;20430;-62
2021/04/07 06:28:07;;;;;;;7.65;2.20;;;5.40;67.20;;;;;;3586213;39;20068;-63
2021/04/07 06:30:46;;;;;;;7.25;2.13;;;5.50;67.70;;;;;;3584709;39;20044;-63
2021/04/07 06:33:24;;;;;;;7.97;2.08;;;5.70;66.40;;;;;;3584276;39;20024;-62
2021/04/07 06:35:58;;;;;;;11.38;2.20;;;5.80;65.50;;;;;;3580845;39;20028;-61
2021/04/07 06:38:25;;;;;;;5.68;2.35;;;5.70;65.50;;;;;;3586834;39;20025;-62
2021/04/07 06:40:52;;;;;;;7.78;2.85;;;5.60;66.00;;;;;;3583655;39;20071;-63
2021/04/07 06:43:18;;;;;;;12.23;3.05;;;5.50;66.70;;;;;;3586389;39;20035;-63
2021/04/07 06:45:45;;;;;;;7.00;2.33;;;5.50;66.80;;;;;;3584845;39;20024;-62
2021/04/07 06:48:12;;;;;;;7.32;2.50;;;5.50;67.30;;;;;;3582535;39;20803;-62
2021/04/07 06:50:39;;;;;;;8.55;1.73;;;5.70;67.20;;;;;;3586860;39;20039;-63
2021/04/07 06:53:06;;;;;;;7.28;2.00;;;5.80;65.50;;;;;;3581474;39;20477;-62
2021/04/07 06:55:33;;;;;;;8.93;2.25;;;5.80;65.80;;;;;;3587747;39;20032;-63
2021/04/07 06:58:01;;;;;;;6.82;2.13;;;5.90;65.00;;;;;;3581620;39;20121;-63
2021/04/07 07:00:28;;;;;;;14.15;2.55;;;5.90;64.80;;;;;;3580881;39;20043;-63
2021/04/07 07:03:20;;;;;;;6.72;1.80;;;5.80;64.80;;;;;;3587077;39;20371;-62
2021/04/07 07:05:51;;;;;;;6.80;2.70;;;5.90;64.50;;;;;;3587635;39;20144;-63
2021/04/07 07:08:18;;;;;;;10.07;2.13;;;5.90;64.50;;;;;;3583838;39;20036;-63
2021/04/07 07:10:51;;;;;;;7.75;2.33;;;6.00;63.80;;;;;;3590994;39;20036;-63
2021/04/07 07:13:18;;;;;;;5.03;1.40;;;6.20;64.10;;;;;;3585870;39;20149;-64
2021/04/07 07:15:44;;;;;;;7.95;1.63;;;6.30;63.70;;;;;;3583108;39;20040;-63
2021/04/07 07:18:10;;;;;;;7.63;1.98;;;6.40;63.10;;;;;;3587736;39;20025;-62
2021/04/07 07:20:40;;;;;;;11.05;1.67;;;6.20;62.40;;;;;;3584087;39;20129;-62
2021/04/07 07:23:06;;;;;;;5.63;1.45;;;6.40;63.80;;;;;;3586756;39;20741;-62
2021/04/07 07:25:33;;;;;;;8.57;2.72;;;6.50;63.10;;;;;;3582437;39;20048;-61
2021/04/07 07:28:04;;;;;;;7.03;1.90;;;6.60;63.00;;;;;;3584630;39;20040;-58
2021/04/07 07:30:42;;;;;;;14.85;2.03;;;6.70;62.80;;;;;;3591497;39;20404;-58
2021/04/07 07:33:22;;;;;;;4.68;1.73;;;6.90;62.50;;;;;;3586593;39;20094;-59
2021/04/07 07:35:50;;;;;;;6.90;1.92;;;7.10;61.20;;;;;;3585323;39;20044;-59
2021/04/07 07:38:25;;;;;;;12.93;2.63;;;7.10;60.30;;;;;;3586425;39;20024;-58
2021/04/07 07:41:06;;;;;;;12.18;3.13;;;7.00;59.40;;;;;;3583839;39;20028;-58
2021/04/07 07:43:36;;;;;;;10.75;2.38;;;7.00;60.30;;;;;;3587315;39;20716;-58
2021/04/07 07:46:20;;;;;;;8.68;2.22;;;6.90;60.70;;;;;;3588667;39;20128;-58
2021/04/07 07:48:47;;;;;;;7.90;2.03;;;6.90;61.20;;;;;;3589856;39;20098;-58
2021/04/07 07:51:22;;;;;;;9.30;3.10;;;7.10;61.40;;;;;;3586874;39;20854;-58
2021/04/07 07:53:49;;;;;;;10.25;3.22;;;7.10;61.10;;;;;;3584855;40;20036;-58
2021/04/07 07:56:17;;;;;;;13.18;3.70;;;7.30;61.00;;;;;;3588498;39;20044;-58
2021/04/07 07:58:46;;;;;;;8.73;3.08;;;7.30;59.20;;;;;;3591873;39;20054;-59
2021/04/07 08:01:14;;;;;;;14.18;2.72;;;7.20;59.60;;;;;;3588552;39;20020;-58
2021/04/07 08:03:44;;;;;;;11.45;3.38;;;7.30;60.20;;;;;;3587863;39;20027;-57
2021/04/07 08:06:14;;;;;;;12.40;2.70;;;7.40;59.90;;;;;;3590135;39;20047;-58
2021/04/07 08:08:40;;;;;;;12.50;2.78;;;7.50;58.40;;;;;;3588552;39;20029;-58
2021/04/07 08:11:08;;;;;;;11.98;2.58;;;7.40;58.30;;;;;;3588311;39;20101;-58
2021/04/07 08:13:43;;;;;;;11.35;2.25;;;7.60;58.60;;;;;;3589802;39;20037;-57
2021/04/07 08:16:15;;;;;;;9.00;2.70;;;7.90;56.40;;;;;;3582790;39;20377;-58
2021/04/07 08:18:41;;;;;;;9.88;3.40;;;8.00;56.80;;;;;;3587474;39;20051;-57
2021/04/07 08:21:08;;;;;;;5.97;2.42;;;8.00;56.50;;;;;;3583484;39;20040;-58
2021/04/07 08:23:36;;;;;;;8.82;2.60;;;8.10;57.00;;;;;;3582986;39;20037;-59
2021/04/07 08:26:02;;;;;;;13.02;3.17;;;8.40;55.30;;;;;;3585545;39;20291;-58
2021/04/07 08:28:29;;;;;;;8.52;2.53;;;8.50;54.50;;;;;;3587323;39;20051;-59
2021/04/07 08:30:57;;;;;;;9.90;2.63;;;8.40;54.50;;;;;;3588044;40;20032;-59
2021/04/07 08:33:24;;;;;;;10.27;2.22;;;8.50;54.90;;;;;;3587409;39;20087;-59
2021/04/07 08:35:53;;;;;;;8.27;2.03;;;8.70;53.50;;;;;;3585208;39;20413;-59
2021/04/07 08:38:30;;;;;;;7.65;2.10;;;8.70;52.70;;;;;;3586453;39;20037;-59
2021/04/07 08:41:08;;;;;;;7.93;2.88;;;8.80;53.90;;;;;;3586529;39;20030;-58
2021/04/07 08:43:34;;;;;;;11.35;2.25;;;8.90;52.60;;;;;;3595170;39;20463;-59
2021/04/07 08:46:15;;;;;;;9.52;2.80;;;8.90;52.70;;;;;;3587249;39;20031;-59
2021/04/07 08:48:41;;;;;;;9.75;2.70;;;8.80;52.40;;;;;;3588362;39;20129;-59
2021/04/07 08:51:09;;;;;;;12.32;2.80;;;8.80;52.80;;;;;;3589459;39;20105;-59
2021/04/07 08:53:41;;;;;;;11.13;5.35;;;8.90;52.60;;;;;;3588031;39;20024;-60
2021/04/07 08:56:11;;;;;;;6.68;2.83;;;9.60;51.50;;;;;;3579604;40;20102;-59
2021/04/07 08:59:00;;;;;;;7.35;2.20;;;10.30;48.80;;;;;;3585406;39;20222;-59
2021/04/07 09:01:33;;;;;;;10.60;1.98;;;11.00;45.50;;;;;;3587374;39;20481;-59
2021/04/07 09:04:11;;;;;;;8.60;2.33;;;10.80;46.20;;;;;;3582883;39;20036;-59
2021/04/07 09:06:57;;;;;;;9.43;2.47;;;10.10;46.60;;;;;;3588233;39;20046;-59
2021/04/07 09:09:23;;;;;;;3.85;2.03;;;9.80;48.10;;;;;;3589262;39;20171;-60
2021/04/07 09:11:51;;;;;;;6.18;2.20;;;10.10;49.90;;;;;;3588399;39;20156;-59
2021/04/07 09:14:18;;;;;;;10.07;2.00;;;10.30;46.00;;;;;;3586295;39;20105;-59
2021/04/07 09:16:43;;;;;;;8.35;2.00;;;10.10;46.30;;;;;;3586386;39;20573;-59
2021/04/07 09:19:15;;;;;;;5.72;1.75;;;9.90;46.50;;;;;;3583606;39;20035;-59
2021/04/07 09:21:55;;;;;;;2.80;1.60;;;9.60;48.00;;;;;;3588203;39;20031;-59
2021/04/07 09:24:24;;;;;;;8.10;2.67;;;10.00;47.50;;;;;;3585771;39;20028;-58
2021/04/07 09:26:51;;;;;;;8.55;2.50;;;10.80;46.30;;;;;;3593500;39;20031;-59
2021/04/07 09:29:16;;;;;;;7.55;3.17;;;11.60;44.30;;;;;;3588101;39;20028;-58
2021/04/07 09:31:44;;;;;;;8.30;2.55;;;11.90;42.00;;;;;;3584228;39;20035;-58
2021/04/07 09:34:14;;;;;;;6.22;2.00;;;12.30;40.80;;;;;;3584410;39;20055;-58
2021/04/07 09:36:42;;;;;;;7.68;2.00;;;12.60;40.80;;;;;;3584931;39;20028;-58
2021/04/07 09:39:13;;;;;;;5.03;2.92;;;12.50;41.60;;;;;;3586066;39;20033;-58
2021/04/07 09:41:43;;;;;;;6.28;1.60;;;12.20;41.60;;;;;;3585394;39;20024;-59
2021/04/07 09:44:11;;;;;;;8.60;2.17;;;11.80;42.30;;;;;;3589232;39;20032;-59
2021/04/07 09:46:37;;;;;;;8.07;3.38;;;11.30;43.10;;;;;;3588339;39;20040;-59
2021/04/07 09:49:06;;;;;;;9.32;1.80;;;10.80;43.80;;;;;;3590793;39;20028;-59
2021/04/07 09:51:36;;;;;;;9.20;2.40;;;11.10;45.20;;;;;;3586282;39;20126;-57
2021/04/07 09:54:19;;;;;;;5.50;2.15;;;12.00;42.00;;;;;;3584791;39;20109;-58
2021/04/07 09:57:05;;;;;;;15.45;7.60;;;12.80;43.00;;;;;;3589615;39;20546;-58
2021/04/07 09:59:46;;;;;;;8.73;2.00;;;12.80;39.50;;;;;;3582738;39;20036;-58
2021/04/07 10:02:28;;;;;;;7.13;2.40;;;12.50;41.90;;;;;;3586085;39;20028;-58
2021/04/07 10:04:55;;;;;;;7.40;3.05;;;12.00;41.80;;;;;;3589247;39;20071;-58
2021/04/07 10:07:23;;;;;;;6.72;2.75;;;11.40;42.00;;;;;;3590280;39;20065;-58
2021/04/07 10:09:51;;;;;;;9.63;3.33;;;10.80;44.40;;;;;;3590854;39;20027;-59
2021/04/07 10:12:19;;;;;;;7.30;2.00;;;10.60;45.00;;;;;;3583673;39;20040;-59
2021/04/07 10:14:59;;;;;;;7.88;1.60;;;10.70;44.50;;;;;;3584639;39;20043;-58
2021/04/07 10:17:30;;;;;;;7.43;1.77;;;11.10;44.10;;;;;;3585863;39;20698;-59
2021/04/07 10:19:56;;;;;;;9.90;3.78;;;11.60;43.20;;;;;;3590110;39;20134;-59
2021/04/07 10:22:29;;;;;;;6.00;1.52;;;11.30;42.90;;;;;;3587147;39;20644;-58
2021/04/07 10:25:04;;;;;;;5.50;1.30;;;10.90;44.40;;;;;;3585928;39;20043;-58
2021/04/07 10:27:30;;;;;;;9.60;1.80;;;10.60;44.40;;;;;;3581847;39;20039;-59
2021/04/07 10:30:10;;;;;;;3.95;1.10;;;10.50;45.60;;;;;;3588157;39;20762;-58
2021/04/07 10:32:50;;;;;;;3.78;1.58;;;10.60;45.00;;;;;;3586407;39;20034;-59
2021/04/07 10:35:21;;;;;;;8.38;1.92;;;10.60;44.10;;;;;;3586138;39;20021;-59
2021/04/07 10:37:56;;;;;;;10.82;3.17;;;10.40;45.20;;;;;;3582506;39;20024;-58
2021/04/07 10:40:26;;;;;;;7.82;2.50;;;10.50;45.80;;;;;;3588440;39;20032;-59
2021/04/07 10:42:51;;;;;;;6.63;1.88;;;10.40;45.60;;;;;;3587657;39;20313;-59
2021/04/07 10:45:19;;;;;;;7.38;1.35;;;10.10;46.20;;;;;;3585368;39;20036;-58
2021/04/07 10:47:45;;;;;;;26.15;9.32;;;9.90;45.80;;;;;;3585658;39;20031;-59
2021/04/07 10:50:13;;;;;;;6.03;1.48;;;9.90;46.20;;;;;;3586023;39;20051;-58
2021/04/07 10:52:43;;;;;;;7.38;1.83;;;9.80;47.00;;;;;;3586495;39;20025;-58
2021/04/07 10:55:23;;;;;;;4.93;1.40;;;9.60;46.80;;;;;;3586585;39;20636;-58
2021/04/07 10:57:56;;;;;;;8.73;1.70;;;9.40;47.90;;;;;;3581244;39;20036;-59
2021/04/07 11:00:39;;;;;;;8.60;2.53;;;9.20;48.40;;;;;;3583932;39;20024;-59
2021/04/07 11:03:06;;;;;;;6.13;1.88;;;9.10;49.20;;;;;;3580533;40;20048;-59
2021/04/07 11:05:44;;;;;;;3.22;1.02;;;9.10;48.60;;;;;;3586581;39;20513;-59
2021/04/07 11:08:12;;;;;;;3.85;0.95;;;9.10;49.50;;;;;;3581100;39;20661;-58
2021/04/07 11:10:51;;;;;;;5.47;1.30;;;9.10;49.20;;;;;;3581354;40;20044;-59
2021/04/07 11:13:20;;;;;;;4.32;1.48;;;9.00;49.90;;;;;;3584062;39;20043;-59
2021/04/07 11:15:46;;;;;;;2.03;1.20;;;8.80;49.60;;;;;;3586309;39;20057;-59
2021/04/07 11:18:12;;;;;;;2.72;0.68;;;8.70;49.40;;;;;;3582171;40;20040;-57
2021/04/07 11:20:40;;;;;;;9.80;3.50;;;8.70;50.50;;;;;;3584731;39;20057;-58
2021/04/07 11:23:06;;;;;;;4.55;1.58;;;8.70;50.10;;;;;;3588574;39;20035;-58
2021/04/07 11:25:32;;;;;;;3.20;1.42;;;8.70;51.20;;;;;;3592400;39;20036;-58
2021/04/07 11:27:58;;;;;;;3.10;1.20;;;8.70;50.70;;;;;;3583307;39;20020;-57
2021/04/07 11:30:30;;;;;;;7.13;2.03;;;8.80;50.70;;;;;;3585338;39;20033;-57
2021/04/07 11:33:01;;;;;;;5.32;2.35;;;8.90;50.60;;;;;;3580748;39;20130;-56
2021/04/07 11:35:33;;;;;;;8.95;2.55;;;8.70;50.90;;;;;;3585020;39;20130;-57
2021/04/07 11:38:02;;;;;;;6.57;1.50;;;8.60;51.40;;;;;;3583069;39;20825;-57
2021/04/07 11:40:41;;;;;;;2.92;1.35;;;8.40;52.20;;;;;;3581471;39;20021;-56
2021/04/07 11:43:14;;;;;;;5.95;1.75;;;8.30;51.80;;;;;;3582848;39;20036;-57
2021/04/07 11:45:39;;;;;;;5.28;1.38;;;8.20;52.10;;;;;;3585538;39;20024;-57
2021/04/07 11:48:08;;;;;;;4.57;1.20;;;8.30;52.30;;;;;;3590131;39;20031;-58
2021/04/07 11:50:34;;;;;;;4.95;1.50;;;8.40;51.90;;;;;;3586813;39;20044;-59
2021/04/07 11:53:00;;;;;;;4.68;1.98;;;8.30;51.80;;;;;;3588238;39;20051;-58
2021/04/07 11:55:26;;;;;;;5.80;1.35;;;8.30;51.90;;;;;;3580049;39;20388;-58
2021/04/07 11:57:51;;;;;;;5.53;1.65;;;8.40;52.00;;;;;;3587577;39;20093;-59
2021/04/07 12:00:18;;;;;;;3.58;1.40;;;8.50;52.90;;;;;;3588976;39;20047;-59
2021/04/07 12:02:46;;;;;;;4.65;1.33;;;8.70;52.00;;;;;;3585432;39;20025;-57
2021/04/07 12:05:18;;;;;;;2.92;1.17;;;8.80;51.90;;;;;;3585480;39;20693;-57
2021/04/07 12:07:44;;;;;;;9.32;1.73;;;8.70;52.20;;;;;;3586152;39;20076;-58
2021/04/07 12:10:10;;;;;;;4.95;2.75;;;8.80;52.20;;;;;;3588775;39;20618;-60
2021/04/07 12:12:36;;;;;;;2.92;1.23;;;8.90;52.30;;;;;;3588030;39;20028;-57
2021/04/07 12:15:02;;;;;;;4.90;0.77;;;9.00;51.20;;;;;;3588758;39;20070;-60
2021/04/07 12:17:28;;;;;;;4.00;1.27;;;8.90;51.00;;;;;;3591499;39;20028;-58
2021/04/07 12:19:53;;;;;;;2.47;1.40;;;8.70;52.00;;;;;;3588640;39;20530;-58
2021/04/07 12:22:19;;;;;;;5.03;1.35;;;8.70;51.80;;;;;;3586339;39;20068;-63
2021/04/07 12:24:45;;;;;;;6.47;1.75;;;8.70;51.90;;;;;;3588092;39;20341;-62
2021/04/07 12:27:10;;;;;;;8.43;1.55;;;8.90;52.20;;;;;;3586517;40;20769;-62
2021/04/07 12:29:36;;;;;;;3.42;1.45;;;8.90;51.40;;;;;;3588113;39;20040;-64
2021/04/07 12:32:03;;;;;;;2.60;1.35;;;8.90;51.50;;;;;;3588211;39;20676;-63
2021/04/07 12:34:29;;;;;;;5.35;1.27;;;9.00;51.30;;;;;;3589596;39;20432;-64
2021/04/07 12:36:57;;;;;;;5.30;2.17;;;9.00;50.70;;;;;;3583700;39;20034;-63
2021/04/07 12:39:24;;;;;;;3.53;1.30;;;9.00;51.60;;;;;;3584206;39;20032;-62
2021/04/07 12:41:53;;;;;;;5.97;2.33;;;9.10;51.00;;;;;;3586962;39;20032;-62
2021/04/07 12:44:19;;;;;;;3.15;1.80;;;9.30;50.70;;;;;;3590339;39;20019;-62
2021/04/07 12:46:45;;;;;;;2.85;1.30;;;9.40;51.40;;;;;;3583223;39;20032;-62
2021/04/07 12:49:11;;;;;;;5.38;1.88;;;9.50;49.60;;;;;;3584157;39;20278;-63
2021/04/07 12:51:36;;;;;;;2.10;0.90;;;9.40;50.10;;;;;;3590324;39;20070;-63
2021/04/07 12:54:02;;;;;;;4.00;1.30;;;9.20;50.60;;;;;;3584476;39;20021;-63
2021/04/07 12:56:30;;;;;;;4.07;1.67;;;9.00;50.70;;;;;;3583162;39;20036;-63
2021/04/07 12:58:56;;;;;;;1.50;1.00;;;8.90;52.40;;;;;;3587084;39;20030;-64
2021/04/07 13:01:22;;;;;;;4.70;1.20;;;9.00;51.50;;;;;;3588970;39;20708;-63